Time,TemperatureF,DewpointF,PressureIn,WindDirection,WindDirectionDegrees,WindSpeedMPH,WindSpeedGustMPH,Humidity,HourlyPrecipIn,Conditions,Clouds,dailyrainin,SoftwareType,DateUTC
2013-04-24 00:02:00,49.0,-10.0,-100.00,North,-999,-999.0,-999.0,7,-99.99,,,-99.99,,2013-04-24 07:02:00,
2013-04-24 00:22:00,48.0,-99.9,-100.00,North,-999,-999.0,-999.0,-999,-99.99,,,-99.99,,2013-04-24 07:22:00,
2013-04-24 00:32:00,49.0,-9.0,-100.00,North,-999,-999.0,-999.0,8,-99.99,,,-99.99,,2013-04-24 07:32:00,
2013-04-24 00:42:00,-999.0,-99.9,-100.00,ESE,112,1.0,-999.0,-999,-99.99,,,-99.99,,2013-04-24 07:42:00,
2013-04-24 00:52:00,-999.0,-99.9,-100.00,ESE,112,1.0,-999.0,-999,-99.99,,,-99.99,,2013-04-24 07:52:00,
2013-04-24 01:01:00,50.0,-13.0,-100.00,North,-999,-999.0,-999.0,6,-99.99,,,-99.99,,2013-04-24 08:01:00,
2013-04-24 01:33:00,-999.0,-99.9,-100.00,SE,129,2.0,-999.0,-999,-99.99,,,-99.99,,2013-04-24 08:33:00,
2013-04-24 01:42:00,-999.0,-99.9,-100.00,SE,129,2.0,-999.0,-999,-99.99,,,-99.99,,2013-04-24 08:42:00,
2013-04-24 01:52:00,49.0,-99.9,-100.00,North,-999,-999.0,-999.0,-999,-99.99,,,-99.99,,2013-04-24 08:52:00,
2013-04-24 02:12:00,-999.0,-99.9,-100.00,SW,230,2.0,-999.0,-999,-99.99,,,-99.99,,2013-04-24 09:12:00,
2013-04-24 02:43:00,48.0,-99.9,-100.00,North,-999,-999.0,-999.0,-999,-99.99,,,-99.99,,2013-04-24 09:43:00,
2013-04-24 03:13:00,53.0,-99.9,-100.00,North,-999,-999.0,-999.0,-999,-99.99,,,-99.99,,2013-04-24 10:13:00,
2013-04-24 03:23:00,53.0,-99.9,-100.00,North,-999,-999.0,-999.0,-999,-99.99,,,-99.99,,2013-04-24 10:23:00,
2013-04-24 03:42:00,48.0,-10.0,-100.00,North,-999,-999.0,-999.0,8,-99.99,,,-99.99,,2013-04-24 10:42:00,
2013-04-24 03:52:00,48.0,-10.0,-100.00,North,-999,-999.0,-999.0,8,-99.99,,,-99.99,,2013-04-24 10:52:00,
2013-04-24 04:03:00,52.0,-99.9,-100.00,North,-999,-999.0,-999.0,-999,-99.99,,,-99.99,,2013-04-24 11:03:00,
2013-04-24 04:11:00,53.0,-18.0,-100.00,North,-999,-999.0,-999.0,4,-99.99,,,-99.99,,2013-04-24 11:11:00,
2013-04-24 04:21:00,53.0,-18.0,-100.00,North,-999,-999.0,-999.0,4,-99.99,,,-99.99,,2013-04-24 11:21:00,
2013-04-24 04:42:00,56.0,-22.0,-100.00,North,-999,-999.0,-999.0,3,-99.99,,,-99.99,,2013-04-24 11:42:00,
2013-04-24 04:53:00,-999.0,-99.9,-100.00,SW,236,7.0,-999.0,-999,-99.99,,,-99.99,,2013-04-24 11:53:00,
2013-04-24 05:02:00,-999.0,-99.9,-100.00,SW,236,7.0,-999.0,-999,-99.99,,,-99.99,,2013-04-24 12:02:00,
2013-04-24 05:12:00,-999.0,-99.9,-100.00,West,275,6.0,-999.0,-999,-99.99,,,-99.99,,2013-04-24 12:12:00,
2013-04-24 05:22:00,-999.0,-99.9,-100.00,West,281,5.0,-999.0,-999,-99.99,,,-99.99,,2013-04-24 12:22:00,
2013-04-24 05:32:00,52.0,-99.9,-100.00,North,-999,-999.0,-999.0,-999,-99.99,,,-99.99,,2013-04-24 12:32:00,
2013-04-24 05:42:00,55.0,-26.0,-100.00,North,-999,-999.0,-999.0,2,-99.99,,,-99.99,,2013-04-24 12:42:00,
2013-04-24 05:52:00,55.0,-26.0,-100.00,North,-999,-999.0,-999.0,2,-99.99,,,-99.99,,2013-04-24 12:52:00,
2013-04-24 06:02:00,-999.0,-99.9,-100.00,West,281,4.0,-999.0,-999,-99.99,,,-99.99,,2013-04-24 13:02:00,
2013-04-24 06:12:00,53.0,-33.0,-100.00,North,-999,-999.0,-999.0,2,-99.99,,,-99.99,,2013-04-24 13:12:00,
2013-04-24 06:22:00,53.0,-33.0,-100.00,North,-999,-999.0,-999.0,2,-99.99,,,-99.99,,2013-04-24 13:22:00,
2013-04-24 06:32:00,-999.0,-99.9,-100.00,WSW,253,4.0,-999.0,-999,-99.99,,,-99.99,,2013-04-24 13:32:00,
2013-04-24 06:42:00,-999.0,-99.9,-100.00,WSW,253,4.0,-999.0,-999,-99.99,,,-99.99,,2013-04-24 13:42:00,
2013-04-24 06:52:00,-999.0,-99.9,-100.00,WSW,253,4.0,-999.0,-999,-99.99,,,-99.99,,2013-04-24 13:52:00,
2013-04-24 07:01:00,-999.0,-99.9,-100.00,WSW,253,4.0,-999.0,-999,-99.99,,,-99.99,,2013-04-24 14:01:00,
2013-04-24 07:12:00,-999.0,-99.9,-100.00,West,281,4.0,-999.0,-999,-99.99,,,-99.99,,2013-04-24 14:12:00,
2013-04-24 07:22:00,-999.0,-99.9,-100.00,West,281,4.0,-999.0,-999,-99.99,,,-99.99,,2013-04-24 14:22:00,
2013-04-24 07:32:00,-999.0,-99.9,-100.00,West,281,4.0,-999.0,-999,-99.99,,,-99.99,,2013-04-24 14:32:00,
2013-04-24 07:42:00,-999.0,-99.9,-100.00,West,281,4.0,-999.0,-999,-99.99,,,-99.99,,2013-04-24 14:42:00,
2013-04-24 07:52:00,-999.0,-99.9,-100.00,West,281,4.0,-999.0,-999,-99.99,,,-99.99,,2013-04-24 14:52:00,
2013-04-24 08:11:00,56.0,-99.9,-100.00,North,-999,-999.0,-999.0,-999,-99.99,,,-99.99,,2013-04-24 15:11:00,
2013-04-24 08:22:00,57.0,-99.9,-100.00,North,-999,-999.0,-999.0,-999,-99.99,,,-99.99,,2013-04-24 15:22:00,
2013-04-24 08:33:00,57.0,-99.9,-100.00,North,-999,-999.0,-999.0,-999,-99.99,,,-99.99,,2013-04-24 15:33:00,
2013-04-24 08:43:00,57.0,-99.9,-100.00,North,-999,-999.0,-999.0,-999,-99.99,,,-99.99,,2013-04-24 15:43:00,
2013-04-24 08:53:00,58.0,-99.9,-100.00,North,-999,-999.0,-999.0,-999,-99.99,,,-99.99,,2013-04-24 15:53:00,
2013-04-24 09:03:00,58.0,-99.9,-100.00,North,-999,-999.0,-999.0,-999,-99.99,,,-99.99,,2013-04-24 16:03:00,
2013-04-24 09:12:00,58.0,-99.9,-100.00,North,-999,-999.0,-999.0,-999,-99.99,,,-99.99,,2013-04-24 16:12:00,
2013-04-24 09:23:00,57.0,-10.0,-100.00,North,-999,-999.0,-999.0,5,-99.99,,,-99.99,,2013-04-24 16:23:00,
2013-04-24 09:32:00,57.0,-10.0,-100.00,North,-999,-999.0,-999.0,5,-99.99,,,-99.99,,2013-04-24 16:32:00,
2013-04-24 09:42:00,59.0,-99.9,-100.00,North,-999,-999.0,-999.0,-999,-99.99,,,-99.99,,2013-04-24 16:42:00,
2013-04-24 09:52:00,58.0,-9.0,-100.00,North,-999,-999.0,-999.0,5,-99.99,,,-99.99,,2013-04-24 16:52:00,
2013-04-24 10:02:00,58.0,-9.0,-100.00,North,-999,-999.0,-999.0,5,-99.99,,,-99.99,,2013-04-24 17:02:00,
2013-04-24 10:12:00,58.0,-9.0,-100.00,North,-999,-999.0,-999.0,5,-99.99,,,-99.99,,2013-04-24 17:12:00,
2013-04-24 10:22:00,-999.0,-99.9,-100.00,WNW,303,1.0,-999.0,-999,-99.99,,,-99.99,,2013-04-24 17:22:00,
2013-04-24 10:32:00,63.0,-99.9,-100.00,North,-999,-999.0,-999.0,-999,-99.99,,,-99.99,,2013-04-24 17:32:00,
2013-04-24 10:42:00,59.0,-4.0,-100.00,North,-999,-999.0,-999.0,7,-99.99,,,-99.99,,2013-04-24 17:42:00,
2013-04-24 10:51:00,59.0,-4.0,-100.00,North,-999,-999.0,-999.0,7,-99.99,,,-99.99,,2013-04-24 17:51:00,
2013-04-24 11:02:00,59.0,-4.0,-100.00,North,-999,-999.0,-999.0,7,-99.99,,,-99.99,,2013-04-24 18:02:00,
2013-04-24 11:12:00,-999.0,-99.9,-100.00,North,0,2.0,-999.0,8,-99.99,,,-99.99,,2013-04-24 18:12:00,
2013-04-24 11:22:00,-999.0,-99.9,-100.00,North,0,2.0,-999.0,8,-99.99,,,-99.99,,2013-04-24 18:22:00,
2013-04-24 11:33:00,63.0,-99.9,-100.00,North,-999,-999.0,-999.0,-999,-99.99,,,-99.99,,2013-04-24 18:33:00,
2013-04-24 11:43:00,-999.0,-99.9,-100.00,NNW,331,2.0,-999.0,-999,-99.99,,,-99.99,,2013-04-24 18:43:00,
2013-04-24 11:52:00,-999.0,-99.9,-100.00,NNW,331,2.0,-999.0,-999,-99.99,,,-99.99,,2013-04-24 18:52:00,
2013-04-24 12:02:00,-999.0,-99.9,-100.00,NNW,331,2.0,-999.0,-999,-99.99,,,-99.99,,2013-04-24 19:02:00,
2013-04-24 12:11:00,63.0,3.0,-100.00,North,-999,-999.0,-999.0,8,-99.99,,,-99.99,,2013-04-24 19:11:00,
2013-04-24 12:21:00,63.0,3.0,-100.00,North,-999,-999.0,-999.0,8,-99.99,,,-99.99,,2013-04-24 19:21:00,
2013-04-24 12:32:00,-999.0,-99.9,-100.00,NW,320,2.0,-999.0,-999,-99.99,,,-99.99,,2013-04-24 19:32:00,
2013-04-24 12:42:00,63.0,1.0,-100.00,North,-999,-999.0,-999.0,8,-99.99,,,-99.99,,2013-04-24 19:42:00,
2013-04-24 12:52:00,63.0,1.0,-100.00,North,-999,-999.0,-999.0,8,-99.99,,,-99.99,,2013-04-24 19:52:00,
2013-04-24 13:02:00,65.0,-99.9,-100.00,North,-999,-999.0,-999.0,-999,-99.99,,,-99.99,,2013-04-24 20:02:00,
2013-04-24 13:11:00,-999.0,-99.9,-100.00,SW,225,3.0,-999.0,-999,-99.99,,,-99.99,,2013-04-24 20:11:00,
2013-04-24 13:22:00,-999.0,-99.9,-100.00,SW,225,3.0,-999.0,-999,-99.99,,,-99.99,,2013-04-24 20:22:00,
2013-04-24 13:32:00,64.0,5.0,-100.00,North,-999,-999.0,-999.0,9,-99.99,,,-99.99,,2013-04-24 20:32:00,
2013-04-24 13:42:00,64.0,5.0,-100.00,North,-999,-999.0,-999.0,9,-99.99,,,-99.99,,2013-04-24 20:42:00,
2013-04-24 13:52:00,64.0,5.0,-100.00,North,-999,-999.0,-999.0,9,-99.99,,,-99.99,,2013-04-24 20:52:00,
2013-04-24 14:02:00,64.0,6.0,-100.00,North,-999,-999.0,-999.0,10,-99.99,,,-99.99,,2013-04-24 21:02:00,
2013-04-24 14:11:00,64.0,6.0,-100.00,North,-999,-999.0,-999.0,10,-99.99,,,-99.99,,2013-04-24 21:11:00,
2013-04-24 14:21:00,64.0,6.0,-100.00,North,-999,-999.0,-999.0,10,-99.99,,,-99.99,,2013-04-24 21:21:00,
2013-04-24 14:33:00,62.0,-99.9,-100.00,North,-999,-999.0,-999.0,-999,-99.99,,,-99.99,,2013-04-24 21:33:00,
2013-04-24 14:43:00,62.0,-99.9,-100.00,North,-999,-999.0,-999.0,-999,-99.99,,,-99.99,,2013-04-24 21:43:00,
2013-04-24 14:53:00,62.0,-99.9,-100.00,North,-999,-999.0,-999.0,-999,-99.99,,,-99.99,,2013-04-24 21:53:00,
2013-04-24 15:03:00,62.0,7.0,-100.00,North,-999,-999.0,-999.0,11,-99.99,,,-99.99,,2013-04-24 22:03:00,
2013-04-24 15:12:00,62.0,7.0,-100.00,North,-999,-999.0,-999.0,11,-99.99,,,-99.99,,2013-04-24 22:12:00,
2013-04-24 15:22:00,63.0,-99.9,-100.00,North,-999,-999.0,-999.0,-999,-99.99,,,-99.99,,2013-04-24 22:22:00,
2013-04-24 15:32:00,63.0,10.0,-100.00,North,-999,-999.0,-999.0,12,-99.99,,,-99.99,,2013-04-24 22:32:00,
2013-04-24 15:42:00,-999.0,-99.9,-100.00,SW,236,2.0,-999.0,-999,-99.99,,,-99.99,,2013-04-24 22:42:00,
2013-04-24 15:52:00,63.0,11.0,-100.00,North,-999,-999.0,-999.0,12,-99.99,,,-99.99,,2013-04-24 22:52:00,
2013-04-24 16:02:00,63.0,11.0,-100.00,North,-999,-999.0,-999.0,12,-99.99,,,-99.99,,2013-04-24 23:02:00,
2013-04-24 16:12:00,64.0,-99.9,-100.00,North,-999,-999.0,-999.0,-999,-99.99,,,-99.99,,2013-04-24 23:12:00,
2013-04-24 16:21:00,63.0,11.0,-100.00,North,-999,-999.0,-999.0,12,-99.99,,,-99.99,,2013-04-24 23:21:00,
2013-04-24 16:32:00,63.0,11.0,-100.00,North,-999,-999.0,-999.0,12,-99.99,,,-99.99,,2013-04-24 23:32:00,
2013-04-24 16:42:00,65.0,-99.9,-100.00,North,-999,-999.0,-999.0,-999,-99.99,,,-99.99,,2013-04-24 23:42:00,
2013-04-24 16:51:00,62.0,10.0,-100.00,North,-999,-999.0,-999.0,12,-99.99,,,-99.99,,2013-04-24 23:51:00,
2013-04-24 17:02:00,-999.0,-99.9,-100.00,NNE,28,3.0,-999.0,-999,-99.99,,,-99.99,,2013-04-25 00:02:00,
2013-04-24 17:13:00,66.0,-99.9,-100.00,North,-999,-999.0,-999.0,-999,-99.99,,,-99.99,,2013-04-25 00:13:00,
2013-04-24 17:23:00,66.0,-99.9,-100.00,North,-999,-999.0,-999.0,-999,-99.99,,,-99.99,,2013-04-25 00:23:00,
2013-04-24 17:32:00,66.0,-99.9,-100.00,North,-999,-999.0,-999.0,-999,-99.99,,,-99.99,,2013-04-25 00:32:00,
2013-04-24 17:41:00,65.0,8.0,-100.00,North,-999,-999.0,-999.0,10,-99.99,,,-99.99,,2013-04-25 00:41:00,
2013-04-24 17:51:00,65.0,8.0,-100.00,North,-999,-999.0,-999.0,10,-99.99,,,-99.99,,2013-04-25 00:51:00,
2013-04-24 18:01:00,65.0,8.0,-100.00,North,-999,-999.0,-999.0,10,-99.99,,,-99.99,,2013-04-25 01:01:00,
2013-04-24 18:11:00,66.0,9.0,-100.00,North,-999,-999.0,-999.0,10,-99.99,,,-99.99,,2013-04-25 01:11:00,
2013-04-24 18:22:00,66.0,9.0,-100.00,North,-999,-999.0,-999.0,10,-99.99,,,-99.99,,2013-04-25 01:22:00,
2013-04-24 18:32:00,66.0,9.0,-100.00,North,-999,-999.0,-999.0,10,-99.99,,,-99.99,,2013-04-25 01:32:00,
2013-04-24 18:43:00,-999.0,-99.9,-100.00,South,174,2.0,-999.0,-999,-99.99,,,-99.99,,2013-04-25 01:43:00,
2013-04-24 18:53:00,-999.0,-99.9,-100.00,South,174,2.0,-999.0,-999,-99.99,,,-99.99,,2013-04-25 01:53:00,
2013-04-24 19:02:00,-999.0,-99.9,-100.00,South,174,2.0,-999.0,-999,-99.99,,,-99.99,,2013-04-25 02:02:00,
2013-04-24 19:11:00,63.0,10.0,-100.00,North,-999,-999.0,-999.0,12,-99.99,,,-99.99,,2013-04-25 02:11:00,
2013-04-24 19:22:00,58.0,-99.9,-100.00,North,-999,-999.0,-999.0,-999,-99.99,,,-99.99,,2013-04-25 02:22:00,
2013-04-24 19:32:00,55.0,-99.9,-100.00,North,-999,-999.0,-999.0,-999,-99.99,,,-99.99,,2013-04-25 02:32:00,
2013-04-24 19:42:00,55.0,-99.9,-100.00,North,-999,-999.0,-999.0,-999,-99.99,,,-99.99,,2013-04-25 02:42:00,
2013-04-24 19:52:00,55.0,-99.9,-100.00,North,-999,-999.0,-999.0,-999,-99.99,,,-99.99,,2013-04-25 02:52:00,
2013-04-24 20:02:00,56.0,-99.9,-100.00,North,-999,-999.0,-999.0,-999,-99.99,,,-99.99,,2013-04-25 03:02:00,
2013-04-24 20:11:00,56.0,-99.9,-100.00,North,-999,-999.0,-999.0,-999,-99.99,,,-99.99,,2013-04-25 03:11:00,
2013-04-24 20:22:00,58.0,-99.9,-100.00,North,-999,-999.0,-999.0,-999,-99.99,,,-99.99,,2013-04-25 03:22:00,
2013-04-24 20:32:00,55.0,12.0,-100.00,North,-999,-999.0,-999.0,18,-99.99,,,-99.99,,2013-04-25 03:32:00,
2013-04-24 20:42:00,55.0,12.0,-100.00,North,-999,-999.0,-999.0,18,-99.99,,,-99.99,,2013-04-25 03:42:00,
2013-04-24 20:52:00,55.0,12.0,-100.00,North,-999,-999.0,-999.0,18,-99.99,,,-99.99,,2013-04-25 03:52:00,
2013-04-24 21:03:00,56.0,11.0,-100.00,North,-999,-999.0,-999.0,16,-99.99,,,-99.99,,2013-04-25 04:03:00,
2013-04-24 21:13:00,-999.0,-99.9,-100.00,South,180,2.0,-999.0,-999,-99.99,,,-99.99,,2013-04-25 04:13:00,
2013-04-24 21:23:00,-999.0,-99.9,-100.00,South,180,2.0,-999.0,-999,-99.99,,,-99.99,,2013-04-25 04:23:00,
2013-04-24 21:32:00,56.0,10.0,-100.00,North,-999,-999.0,-999.0,16,-99.99,,,-99.99,,2013-04-25 04:32:00,
2013-04-24 21:43:00,56.0,10.0,-100.00,North,-999,-999.0,-999.0,16,-99.99,,,-99.99,,2013-04-25 04:43:00,
2013-04-24 21:52:00,56.0,10.0,-100.00,North,-999,-999.0,-999.0,16,-99.99,,,-99.99,,2013-04-25 04:52:00,
2013-04-24 22:02:00,54.0,10.0,-100.00,North,-999,-999.0,-999.0,16,-99.99,,,-99.99,,2013-04-25 05:02:00,
2013-04-24 22:12:00,54.0,10.0,-100.00,North,-999,-999.0,-999.0,16,-99.99,,,-99.99,,2013-04-25 05:12:00,
2013-04-24 22:22:00,55.0,-99.9,-100.00,North,-999,-999.0,-999.0,-999,-99.99,,,-99.99,,2013-04-25 05:22:00,
2013-04-24 22:31:00,55.0,9.0,-100.00,North,-999,-999.0,-999.0,15,-99.99,,,-99.99,,2013-04-25 05:31:00,
2013-04-24 22:52:00,-999.0,-99.9,-100.00,SE,129,2.0,-999.0,-999,-99.99,,,-99.99,,2013-04-25 05:52:00,
2013-04-24 23:02:00,-999.0,-99.9,-100.00,SE,129,2.0,-999.0,-999,-99.99,,,-99.99,,2013-04-25 06:02:00,
2013-04-24 23:12:00,-999.0,-99.9,-100.00,SE,129,2.0,-999.0,-999,-99.99,,,-99.99,,2013-04-25 06:12:00,
2013-04-24 23:22:00,55.0,8.0,-100.00,North,-999,-999.0,-999.0,14,-99.99,,,-99.99,,2013-04-25 06:22:00,
2013-04-24 23:42:00,52.0,-99.9,-100.00,North,-999,-999.0,-999.0,-999,-99.99,,,-99.99,,2013-04-25 06:42:00,
2013-04-24 23:52:00,-999.0,-99.9,-100.00,East,84,2.0,-999.0,-999,-99.99,,,-99.99,,2013-04-25 06:52:00,